createdAt,value
2024-04-23T00:00:12.165Z,0.00
2024-04-23T00:01:12.166Z,0.00
2024-04-23T00:02:12.128Z,0.00
2024-04-23T00:03:12.158Z,0.00
2024-04-23T00:04:12.168Z,0.00
2024-04-23T00:05:12.149Z,0.00
2024-04-23T00:06:12.048Z,0.00
2024-04-23T00:07:12.028Z,0.00
2024-04-23T00:08:12.009Z,0.00
2024-04-23T00:09:11.988Z,0.00
2024-04-23T00:10:11.963Z,0.00
2024-04-23T00:11:12.184Z,0.00
2024-04-23T00:12:11.925Z,0.00
2024-04-23T00:13:11.898Z,0.00
2024-04-23T00:14:11.892Z,0.00
2024-04-23T00:15:11.878Z,0.00
2024-04-23T00:16:11.857Z,0.00
2024-04-23T00:17:11.831Z,0.00
2024-04-23T00:18:11.944Z,0.00
2024-04-23T00:19:11.787Z,0.00
2024-04-23T00:20:11.759Z,0.00
2024-04-23T00:21:11.743Z,0.00
2024-04-23T00:22:11.720Z,0.00
2024-04-23T00:23:11.700Z,0.00
2024-04-23T00:24:11.678Z,0.00
2024-04-23T00:25:11.662Z,0.00
2024-04-23T00:26:11.638Z,0.00
2024-04-23T00:27:11.619Z,0.00
2024-04-23T00:28:11.598Z,0.00
2024-04-23T00:29:11.575Z,0.00
2024-04-23T00:30:11.554Z,0.00
2024-04-23T00:31:11.538Z,0.00
2024-04-23T00:32:11.577Z,0.00
2024-04-23T00:33:11.588Z,0.00
2024-04-23T00:34:11.518Z,0.00
2024-04-23T00:35:11.453Z,0.00
2024-04-23T00:36:11.430Z,0.00
2024-04-23T00:37:11.412Z,0.00
2024-04-23T00:38:11.395Z,0.00
2024-04-23T00:39:11.383Z,0.00
2024-04-23T00:40:11.369Z,0.00
2024-04-23T00:41:11.346Z,0.00
2024-04-23T00:42:11.309Z,0.00
2024-04-23T00:43:11.292Z,0.00
2024-04-23T00:44:11.266Z,0.00
2024-04-23T00:45:11.251Z,0.00
2024-04-23T00:46:11.227Z,0.00
2024-04-23T00:47:11.204Z,0.00
2024-04-23T00:48:11.278Z,0.00
2024-04-23T00:49:11.187Z,0.00
2024-04-23T00:50:11.181Z,0.00
2024-04-23T00:51:11.125Z,0.00
2024-04-23T00:52:11.117Z,0.00
2024-04-23T00:53:11.086Z,0.00
2024-04-23T00:54:11.069Z,0.00
2024-04-23T00:55:11.252Z,0.00
2024-04-23T00:56:11.748Z,0.00
2024-04-23T00:57:10.999Z,0.00
2024-04-23T00:58:10.984Z,0.00
2024-04-23T00:59:10.990Z,0.00
2024-04-23T01:00:11.724Z,0.00
2024-04-23T01:01:10.952Z,0.00
2024-04-23T01:02:10.898Z,0.00
2024-04-23T01:03:11.021Z,0.00
2024-04-23T01:04:10.855Z,0.00
2024-04-23T01:05:10.843Z,0.00
2024-04-23T01:06:10.815Z,0.00
2024-04-23T01:07:10.812Z,0.00
2024-04-23T01:08:10.776Z,0.00
2024-04-23T01:09:10.748Z,0.00
2024-04-23T01:10:10.740Z,0.00
2024-04-23T01:11:10.812Z,0.00
2024-04-23T01:12:10.720Z,0.00
2024-04-23T01:13:10.669Z,0.00
2024-04-23T01:14:10.655Z,0.00
2024-04-23T01:15:10.627Z,0.00
2024-04-23T01:16:10.605Z,0.00
2024-04-23T01:17:10.752Z,0.00
2024-04-23T01:18:10.619Z,0.00
2024-04-23T01:19:10.543Z,0.00
2024-04-23T01:20:10.570Z,0.00
2024-04-23T01:21:10.508Z,0.00
2024-04-23T01:22:10.479Z,0.00
2024-04-23T01:23:10.458Z,0.00
2024-04-23T01:24:10.441Z,0.00
2024-04-23T01:25:10.438Z,0.00
2024-04-23T01:26:10.446Z,0.00
2024-04-23T01:27:10.415Z,0.00
2024-04-23T01:28:10.370Z,0.00
2024-04-23T01:29:10.336Z,0.00
2024-04-23T01:30:10.319Z,0.00
2024-04-23T01:31:10.295Z,0.00
2024-04-23T01:32:10.276Z,0.00
2024-04-23T01:33:10.376Z,0.00
2024-04-23T01:34:10.234Z,0.00
2024-04-23T01:35:10.240Z,0.00
2024-04-23T01:36:10.186Z,0.00
2024-04-23T01:37:10.174Z,0.00
2024-04-23T01:38:10.147Z,0.00
2024-04-23T01:39:10.134Z,0.00
2024-04-23T01:40:10.103Z,0.00
2024-04-23T01:41:10.091Z,0.00
2024-04-23T01:42:10.077Z,0.00
2024-04-23T01:43:10.039Z,0.00
2024-04-23T01:44:10.026Z,0.00
2024-04-23T01:45:10.003Z,0.00
2024-04-23T01:46:09.981Z,0.00
2024-04-23T01:47:10.096Z,0.00
2024-04-23T01:48:10.043Z,0.00
2024-04-23T01:49:09.926Z,0.00
2024-04-23T01:50:09.911Z,0.00
2024-04-23T01:51:09.871Z,0.00
2024-04-23T01:52:09.849Z,0.00
2024-04-23T01:53:09.848Z,0.00
2024-04-23T01:54:09.819Z,0.00
2024-04-23T01:55:09.791Z,0.00
2024-04-23T01:56:09.771Z,0.00
2024-04-23T01:57:09.749Z,0.00
2024-04-23T01:58:09.741Z,0.00
2024-04-23T01:59:09.744Z,0.00
2024-04-23T02:00:09.685Z,0.00
2024-04-23T02:01:09.691Z,0.00
2024-04-23T02:02:09.755Z,0.00
2024-04-23T02:03:09.665Z,0.00
2024-04-23T02:04:10.707Z,0.00
2024-04-23T02:05:09.585Z,0.00
2024-04-23T02:06:09.557Z,0.00
2024-04-23T02:07:09.541Z,0.00
2024-04-23T02:08:09.588Z,0.00
2024-04-23T02:09:09.499Z,0.00
2024-04-23T02:10:09.482Z,0.00
2024-04-23T02:11:09.610Z,0.00
2024-04-23T02:12:09.434Z,0.00
2024-04-23T02:13:09.435Z,0.00
2024-04-23T02:14:09.393Z,0.00
2024-04-23T02:15:09.396Z,0.00
2024-04-23T02:16:09.351Z,0.00
2024-04-23T02:17:09.402Z,0.00
2024-04-23T02:18:09.357Z,0.00
2024-04-23T02:19:09.291Z,0.00
2024-04-23T02:20:09.295Z,0.00
2024-04-23T02:21:09.252Z,0.00
2024-04-23T02:22:09.223Z,0.00
2024-04-23T02:23:09.201Z,0.00
2024-04-23T02:24:09.184Z,0.00
2024-04-23T02:25:09.167Z,0.00
2024-04-23T02:26:09.190Z,0.00
2024-04-23T02:27:09.117Z,0.00
2024-04-23T02:28:09.105Z,0.00
2024-04-23T02:29:09.078Z,0.00
2024-04-23T02:30:09.064Z,0.00
2024-04-23T02:31:09.036Z,0.00
2024-04-23T02:32:09.016Z,0.00
2024-04-23T02:33:09.092Z,0.00
2024-04-23T02:34:08.972Z,0.00
2024-04-23T02:35:08.992Z,0.00
2024-04-23T02:36:08.935Z,0.00
2024-04-23T02:37:08.906Z,0.00
2024-04-23T02:38:08.883Z,0.00
2024-04-23T02:39:08.900Z,0.00
2024-04-23T02:40:08.859Z,0.00
2024-04-23T02:41:08.828Z,0.00
2024-04-23T02:42:08.801Z,0.00
2024-04-23T02:43:08.782Z,0.00
2024-04-23T02:44:08.759Z,0.00
2024-04-23T02:45:08.740Z,0.00
2024-04-23T02:46:08.719Z,0.00
2024-04-23T02:47:08.708Z,0.00
2024-04-23T02:48:09.016Z,0.00
2024-04-23T02:49:08.652Z,0.00
2024-04-23T02:50:08.688Z,0.00
2024-04-23T02:51:08.608Z,0.00
2024-04-23T02:52:08.593Z,0.00
2024-04-23T02:53:08.601Z,0.00
2024-04-23T02:54:08.548Z,0.00
2024-04-23T02:55:08.529Z,0.00
2024-04-23T02:56:08.597Z,0.00
2024-04-23T02:57:08.577Z,0.00
2024-04-23T02:58:08.517Z,0.00
2024-04-23T02:59:08.506Z,0.00
2024-04-23T03:00:08.560Z,0.00
2024-04-23T03:01:08.526Z,0.00
2024-04-23T03:02:08.654Z,0.00
2024-04-23T03:03:08.515Z,0.00
2024-04-23T03:04:08.352Z,0.00
2024-04-23T03:05:08.360Z,0.00
2024-04-23T03:06:08.312Z,0.00
2024-04-23T03:07:08.281Z,0.00
2024-04-23T03:08:08.325Z,0.00
2024-04-23T03:09:08.234Z,0.00
2024-04-23T03:10:08.231Z,0.00
2024-04-23T03:11:08.336Z,0.00
2024-04-23T03:12:08.172Z,0.00
2024-04-23T03:13:08.150Z,0.00
2024-04-23T03:14:08.166Z,0.00
2024-04-23T03:15:08.236Z,0.00
2024-04-23T03:16:10.000Z,0.00
2024-04-23T03:17:08.075Z,0.00
2024-04-23T03:18:08.168Z,0.00
2024-04-23T03:19:08.020Z,0.00
2024-04-23T03:20:08.038Z,0.00
2024-04-23T03:21:07.982Z,0.00
2024-04-23T03:22:07.955Z,0.00
2024-04-23T03:23:07.999Z,0.00
2024-04-23T03:24:07.913Z,0.00
2024-04-23T03:25:07.947Z,0.00
2024-04-23T03:26:07.890Z,0.00
2024-04-23T03:27:07.863Z,0.00
2024-04-23T03:28:07.829Z,0.00
2024-04-23T03:29:07.840Z,0.00
2024-04-23T03:30:07.797Z,0.00
2024-04-23T03:31:07.763Z,0.00
2024-04-23T03:32:07.776Z,0.00
2024-04-23T03:33:07.773Z,0.00
2024-04-23T03:34:07.723Z,0.00
2024-04-23T03:35:07.739Z,0.00
2024-04-23T03:36:07.659Z,0.00
2024-04-23T03:37:07.647Z,0.00
2024-04-23T03:38:07.653Z,0.00
2024-04-23T03:39:07.593Z,0.00
2024-04-23T03:40:07.577Z,0.00
2024-04-23T03:41:07.631Z,0.00
2024-04-23T03:42:07.549Z,0.00
2024-04-23T03:43:07.545Z,0.00
2024-04-23T03:44:07.577Z,0.00
2024-04-23T03:45:07.463Z,0.00
2024-04-23T03:46:07.443Z,0.00
2024-04-23T03:47:07.544Z,0.00
2024-04-23T03:48:07.451Z,0.00
2024-04-23T03:49:07.380Z,0.00
2024-04-23T03:50:07.367Z,4.00
2024-04-23T03:51:07.338Z,0.00
2024-04-23T03:52:07.334Z,0.00
2024-04-23T03:53:07.324Z,4.00
2024-04-23T03:54:07.272Z,4.00
2024-04-23T03:55:07.250Z,4.00
2024-04-23T03:56:07.264Z,4.00
2024-04-23T03:57:07.221Z,4.00
2024-04-23T03:58:07.205Z,8.00
2024-04-23T03:59:07.362Z,8.00
2024-04-23T04:00:07.149Z,8.00
2024-04-23T04:01:07.201Z,8.00
2024-04-23T04:02:07.225Z,12.00
2024-04-23T04:03:07.108Z,12.00
2024-04-23T04:04:07.062Z,12.00
2024-04-23T04:05:07.113Z,16.00
2024-04-23T04:06:07.024Z,16.00
2024-04-23T04:07:07.006Z,16.00
2024-04-23T04:08:07.003Z,20.00
2024-04-23T04:09:06.959Z,24.00
2024-04-23T04:10:06.949Z,24.00
2024-04-23T04:11:07.001Z,28.00
2024-04-23T04:12:06.896Z,32.00
2024-04-23T04:13:17.119Z,32.00
2024-04-23T04:14:06.893Z,40.00
2024-04-23T04:15:06.828Z,44.00
2024-04-23T04:16:06.808Z,48.00
2024-04-23T04:17:06.828Z,48.00
2024-04-23T04:18:06.893Z,52.00
2024-04-23T04:19:06.755Z,60.00
2024-04-23T04:20:06.764Z,64.00
2024-04-23T04:21:06.700Z,72.00
2024-04-23T04:22:06.681Z,72.00
2024-04-23T04:23:06.710Z,80.00
2024-04-23T04:24:06.642Z,88.00
2024-04-23T04:25:06.614Z,92.00
2024-04-23T04:26:06.614Z,100.00
2024-04-23T04:27:06.610Z,104.00
2024-04-23T04:28:06.564Z,112.00
2024-04-23T04:29:06.563Z,124.00
2024-04-23T04:30:06.513Z,128.00
2024-04-23T04:31:06.492Z,136.00
2024-04-23T04:32:06.526Z,148.00
2024-04-23T04:33:06.549Z,156.00
2024-04-23T04:34:06.423Z,164.00
2024-04-23T04:35:06.467Z,168.00
2024-04-23T04:36:06.413Z,180.00
2024-04-23T04:37:06.390Z,192.00
2024-04-23T04:38:06.383Z,204.00
2024-04-23T04:39:06.364Z,208.00
2024-04-23T04:40:06.301Z,224.00
2024-04-23T04:41:06.345Z,232.00
2024-04-23T04:42:06.244Z,244.00
2024-04-23T04:43:06.222Z,252.00
2024-04-23T04:44:06.355Z,264.00
2024-04-23T04:45:06.182Z,276.00
2024-04-23T04:46:06.158Z,284.00
2024-04-23T04:47:09.921Z,292.00
2024-04-23T04:48:06.244Z,304.00
2024-04-23T04:49:06.098Z,312.00
2024-04-23T04:50:06.145Z,320.00
2024-04-23T04:51:06.064Z,328.00
2024-04-23T04:52:06.029Z,340.00
2024-04-23T04:53:06.016Z,348.00
2024-04-23T04:54:05.994Z,360.00
2024-04-23T04:55:05.970Z,368.00
2024-04-23T04:56:05.947Z,376.00
2024-04-23T04:57:05.923Z,384.00
2024-04-23T04:58:05.900Z,396.00
2024-04-23T04:59:05.889Z,408.00
2024-04-23T05:00:05.860Z,416.00
2024-04-23T05:01:05.897Z,428.00
2024-04-23T05:02:05.851Z,436.00
2024-04-23T05:03:05.807Z,444.00
2024-04-23T05:04:05.858Z,456.00
2024-04-23T05:05:05.783Z,460.00
2024-04-23T05:06:05.726Z,468.00
2024-04-23T05:07:05.706Z,480.00
2024-04-23T05:08:05.715Z,488.00
2024-04-23T05:09:05.673Z,500.00
2024-04-23T05:10:05.662Z,508.00
2024-04-23T05:11:05.671Z,516.00
2024-04-23T05:12:05.661Z,528.00
2024-04-23T05:13:05.628Z,540.00
2024-04-23T05:14:05.583Z,548.00
2024-04-23T05:15:05.550Z,556.00
2024-04-23T05:16:05.518Z,568.00
2024-04-23T05:17:05.533Z,580.00
2024-04-23T05:18:05.559Z,584.00
2024-04-23T05:19:05.457Z,592.00
2024-04-23T05:20:05.431Z,604.00
2024-04-23T05:21:05.421Z,624.00
2024-04-23T05:22:05.396Z,648.00
2024-04-23T05:23:05.391Z,680.00
2024-04-23T05:24:05.346Z,712.00
2024-04-23T05:25:05.331Z,748.00
2024-04-23T05:26:05.355Z,780.00
2024-04-23T05:27:05.284Z,820.00
2024-04-23T05:28:05.266Z,864.00
2024-04-23T05:29:05.321Z,908.00
2024-04-23T05:30:05.227Z,960.00
2024-04-23T05:31:05.209Z,1004.00
2024-04-23T05:32:05.287Z,972.00
2024-04-23T05:33:05.357Z,1036.00
2024-04-23T05:34:05.136Z,1144.00
2024-04-23T05:35:05.132Z,1212.00
2024-04-23T05:36:05.095Z,1288.00
2024-04-23T05:37:05.076Z,1312.00
2024-04-23T05:38:05.099Z,1300.00
2024-04-23T05:39:05.043Z,1432.00
2024-04-23T05:40:05.040Z,1476.00
2024-04-23T05:41:05.104Z,1484.00
2024-04-23T05:42:04.969Z,1524.00
2024-04-23T05:43:04.960Z,1568.00
2024-04-23T05:44:04.958Z,1612.00
2024-04-23T05:45:04.921Z,1652.00
2024-04-23T05:46:04.890Z,1692.00
2024-04-23T05:47:04.983Z,1712.00
2024-04-23T05:48:04.925Z,1732.00
2024-04-23T05:49:04.860Z,1772.00
2024-04-23T05:50:05.008Z,1808.00
2024-04-23T05:51:04.785Z,1848.00
2024-04-23T05:52:12.567Z,1888.00
2024-04-23T05:53:04.761Z,1928.00
2024-04-23T05:54:04.730Z,1968.00
2024-04-23T05:55:04.714Z,2008.00
2024-04-23T05:56:04.764Z,2060.00
2024-04-23T05:57:04.666Z,2080.00
2024-04-23T05:58:04.661Z,2152.00
2024-04-23T05:59:04.723Z,2196.00
2024-04-23T06:00:04.640Z,2228.00
2024-04-23T06:01:04.644Z,2272.00
2024-04-23T06:02:04.639Z,2320.00
2024-04-23T06:03:04.586Z,2376.00
2024-04-23T06:04:04.584Z,2420.00
2024-04-23T06:05:04.612Z,2456.00
2024-04-23T06:06:04.495Z,2492.00
2024-04-23T06:07:04.471Z,2540.00
2024-04-23T06:08:04.572Z,2584.00
2024-04-23T06:09:04.435Z,2640.00
2024-04-23T06:10:04.416Z,2688.00
2024-04-23T06:11:04.512Z,2744.00
2024-04-23T06:12:04.375Z,2808.00
2024-04-23T06:13:04.363Z,2852.00
2024-04-23T06:14:04.403Z,2900.00
2024-04-23T06:15:04.314Z,2956.00
2024-04-23T06:16:04.404Z,3004.00
2024-04-23T06:17:04.371Z,3068.00
2024-04-23T06:18:04.303Z,3120.00
2024-04-23T06:19:04.454Z,3156.00
2024-04-23T06:20:04.286Z,3236.00
2024-04-23T06:21:04.204Z,3296.00
2024-04-23T06:22:04.184Z,3380.00
2024-04-23T06:23:04.290Z,3432.00
2024-04-23T06:24:04.149Z,3484.00
2024-04-23T06:25:04.126Z,3572.00
2024-04-23T06:26:04.134Z,3632.00
2024-04-23T06:27:04.092Z,3712.00
2024-04-23T06:28:04.072Z,3784.00
2024-04-23T06:29:04.084Z,3844.00
2024-04-23T06:30:04.035Z,3932.00
2024-04-23T06:31:04.023Z,4008.00
2024-04-23T06:32:04.093Z,4088.00
2024-04-23T06:33:04.195Z,4152.00
2024-04-23T06:34:03.983Z,4228.00
2024-04-23T06:35:04.016Z,4320.00
2024-04-23T06:36:03.930Z,4412.00
2024-04-23T06:37:03.926Z,4480.00
2024-04-23T06:38:04.060Z,4568.00
2024-04-23T06:39:03.877Z,4676.00
2024-04-23T06:40:03.956Z,4764.00
2024-04-23T06:41:03.861Z,4836.00
2024-04-23T06:42:03.830Z,4952.00
2024-04-23T06:43:03.809Z,5044.00
2024-04-23T06:44:03.804Z,5128.00
2024-04-23T06:45:03.771Z,5240.00
2024-04-23T06:46:03.749Z,5324.00
2024-04-23T06:47:03.813Z,5404.00
2024-04-23T06:48:03.818Z,5516.00
2024-04-23T06:49:03.702Z,5616.00
2024-04-23T06:50:03.948Z,5740.00
2024-04-23T06:51:03.682Z,5848.00
2024-04-23T06:52:03.653Z,5964.00
2024-04-23T06:53:07.579Z,6092.00
2024-04-23T06:54:03.615Z,6180.00
2024-04-23T06:55:03.774Z,6264.00
2024-04-23T06:56:03.691Z,6384.00
2024-04-23T06:57:03.562Z,6512.00
2024-04-23T06:58:03.560Z,6628.00
2024-04-23T06:59:03.640Z,6724.00
2024-04-23T07:00:03.528Z,6840.00
2024-04-23T07:01:03.535Z,6948.00
2024-04-23T07:02:03.595Z,7036.00
2024-04-23T07:03:03.495Z,7144.00
2024-04-23T07:04:03.535Z,7212.00
2024-04-23T07:05:03.531Z,7300.00
2024-04-23T07:06:03.416Z,7376.00
2024-04-23T07:07:03.409Z,7460.00
2024-04-23T07:08:03.581Z,7536.00
2024-04-23T07:09:03.383Z,7616.00
2024-04-23T07:10:03.365Z,7680.00
2024-04-23T07:11:03.425Z,7788.00
2024-04-23T07:12:03.320Z,7868.00
2024-04-23T07:13:03.344Z,7956.00
2024-04-23T07:14:03.325Z,8040.00
2024-04-23T07:15:03.344Z,8176.00
2024-04-23T07:16:03.262Z,8296.00
2024-04-23T07:17:03.366Z,8440.00
2024-04-23T07:18:03.464Z,8572.00
2024-04-23T07:19:03.283Z,8688.00
2024-04-23T07:20:03.350Z,8772.00
2024-04-23T07:21:03.186Z,8904.00
2024-04-23T07:22:03.170Z,9032.00
2024-04-23T07:23:03.260Z,9136.00
2024-04-23T07:24:03.135Z,9244.00
2024-04-23T07:25:03.125Z,9372.00
2024-04-23T07:26:03.199Z,9508.00
2024-04-23T07:27:03.106Z,9656.00
2024-04-23T07:28:03.084Z,9808.00
2024-04-23T07:29:03.117Z,9968.00
2024-04-23T07:30:03.051Z,10132.00
2024-04-23T07:31:03.040Z,10316.00
2024-04-23T07:32:03.164Z,10476.00
2024-04-23T07:33:03.070Z,10640.00
2024-04-23T07:34:02.990Z,10764.00
2024-04-23T07:35:03.140Z,10916.00
2024-04-23T07:36:02.973Z,11032.00
2024-04-23T07:37:02.973Z,8452.00
2024-04-23T07:38:02.968Z,8540.00
2024-04-23T07:39:02.932Z,8628.00
2024-04-23T07:40:02.934Z,11504.00
2024-04-23T07:41:03.044Z,11628.00
2024-04-23T07:42:02.892Z,11672.00
2024-04-23T07:43:02.904Z,11784.00
2024-04-23T07:44:03.021Z,11848.00
2024-04-23T07:45:02.860Z,11912.00
2024-04-23T07:46:02.854Z,11972.00
2024-04-23T07:47:02.895Z,12000.00
2024-04-23T07:48:03.066Z,12072.00
2024-04-23T07:49:02.835Z,12144.00
2024-04-23T07:50:03.001Z,12220.00
2024-04-23T07:51:02.797Z,12296.00
2024-04-23T07:52:02.798Z,12376.00
2024-04-23T07:53:02.864Z,12432.00
2024-04-23T07:54:02.764Z,12508.00
2024-04-23T07:55:03.090Z,12572.00
2024-04-23T07:56:02.800Z,12628.00
2024-04-23T07:57:02.738Z,12688.00
2024-04-23T07:58:02.737Z,12752.00
2024-04-23T07:59:02.748Z,12792.00
2024-04-23T08:00:02.711Z,12868.00
2024-04-23T08:01:02.815Z,12924.00
2024-04-23T08:02:02.759Z,12968.00
2024-04-23T08:03:02.724Z,12976.00
2024-04-23T08:04:02.879Z,13032.00
2024-04-23T08:05:02.744Z,13084.00
2024-04-23T08:06:02.667Z,13152.00
2024-04-23T08:07:02.676Z,13184.00
2024-04-23T08:08:03.062Z,13240.00
2024-04-23T08:09:02.643Z,13284.00
2024-04-23T08:10:02.752Z,13352.00
2024-04-23T08:11:02.829Z,13376.00
2024-04-23T08:12:02.688Z,13396.00
2024-04-23T08:13:02.621Z,13416.00
2024-04-23T08:14:02.742Z,13476.00
2024-04-23T08:15:02.631Z,13516.00
2024-04-23T08:16:02.833Z,13556.00
2024-04-23T08:17:02.782Z,13592.00
2024-04-23T08:18:02.943Z,13612.00
2024-04-23T08:19:02.664Z,13644.00
2024-04-23T08:20:03.724Z,13680.00
2024-04-23T08:21:02.924Z,13724.00
2024-04-23T08:22:02.575Z,13800.00
2024-04-23T08:23:02.639Z,13836.00
2024-04-23T08:24:02.766Z,13896.00
2024-04-23T08:25:02.701Z,13916.00
2024-04-23T08:26:02.935Z,13900.00
2024-04-23T08:27:02.552Z,13964.00
2024-04-23T08:28:02.619Z,13960.00
2024-04-23T08:29:02.686Z,14008.00
2024-04-23T08:30:02.526Z,14088.00
2024-04-23T08:31:02.531Z,14168.00
2024-04-23T08:32:02.702Z,14236.00
2024-04-23T08:33:02.690Z,14300.00
2024-04-23T08:34:02.836Z,14368.00
2024-04-23T08:35:03.170Z,14384.00
2024-04-23T08:36:02.498Z,14376.00
2024-04-23T08:37:02.520Z,14392.00
2024-04-23T08:38:02.795Z,14412.00
2024-04-23T08:39:02.658Z,14456.00
2024-04-23T08:40:02.498Z,14496.00
2024-04-23T08:41:03.314Z,14552.00
2024-04-23T08:42:02.830Z,14584.00
2024-04-23T08:43:02.505Z,14616.00
2024-04-23T08:44:02.524Z,14612.00
2024-04-23T08:45:02.714Z,14700.00
2024-04-23T08:46:02.712Z,14780.00
2024-04-23T08:47:02.507Z,14816.00
2024-04-23T08:48:02.591Z,14776.00
2024-04-23T08:49:02.460Z,14820.00
2024-04-23T08:50:02.548Z,14948.00
2024-04-23T08:51:02.438Z,15044.00
2024-04-23T08:52:02.442Z,15044.00
2024-04-23T08:53:02.474Z,15148.00
2024-04-23T08:54:02.443Z,15184.00
2024-04-23T08:55:02.469Z,15164.00
2024-04-23T08:56:02.556Z,15384.00
2024-04-23T08:57:02.427Z,2972.00
2024-04-23T08:58:02.430Z,6944.00
2024-04-23T08:59:02.441Z,15936.00
2024-04-23T09:00:04.659Z,16032.00
2024-04-23T09:01:02.468Z,16032.00
2024-04-23T09:02:02.467Z,16128.00
2024-04-23T09:03:02.463Z,16288.00
2024-04-23T09:04:02.455Z,16512.00
2024-04-23T09:05:02.579Z,16736.00
2024-04-23T09:06:02.402Z,16768.00
2024-04-23T09:07:02.399Z,16896.00
2024-04-23T09:08:02.422Z,16864.00
2024-04-23T09:09:02.400Z,16928.00
2024-04-23T09:10:02.400Z,17088.00
2024-04-23T09:11:02.760Z,17216.00
2024-04-23T09:12:02.449Z,17152.00
2024-04-23T09:13:02.379Z,17632.00
2024-04-23T09:14:02.511Z,18080.00
2024-04-23T09:15:02.954Z,15840.00
2024-04-23T09:16:02.383Z,17856.00
2024-04-23T09:17:02.462Z,4108.00
2024-04-23T09:18:02.529Z,3968.00
2024-04-23T09:19:02.368Z,3992.00
2024-04-23T09:20:02.426Z,4300.00
2024-04-23T09:21:02.363Z,5028.00
2024-04-23T09:22:03.700Z,6404.00
2024-04-23T09:23:02.595Z,4836.00
2024-04-23T09:24:02.390Z,4964.00
2024-04-23T09:25:02.368Z,4984.00
2024-04-23T09:26:02.409Z,5540.00
2024-04-23T09:27:02.342Z,5592.00
2024-04-23T09:28:02.403Z,9576.00
2024-04-23T09:29:02.398Z,17216.00
2024-04-23T09:30:02.339Z,21984.00
2024-04-23T09:31:02.329Z,22560.00
2024-04-23T09:32:02.451Z,22240.00
2024-04-23T09:33:02.508Z,12796.00
2024-04-23T09:34:02.346Z,21120.00
2024-04-23T09:35:02.482Z,11172.00
2024-04-23T09:36:02.295Z,14564.00
2024-04-23T09:37:02.298Z,25248.00
2024-04-23T09:38:02.379Z,27136.00
2024-04-23T09:39:02.282Z,28192.00
2024-04-23T09:40:02.290Z,11576.00
2024-04-23T09:41:02.292Z,27360.00
2024-04-23T09:42:02.281Z,27488.00
2024-04-23T09:43:02.304Z,26944.00
2024-04-23T09:44:02.322Z,25920.00
2024-04-23T09:45:02.307Z,25792.00
2024-04-23T09:46:02.270Z,26368.00
2024-04-23T09:47:02.356Z,26944.00
2024-04-23T09:48:02.427Z,26368.00
2024-04-23T09:49:02.249Z,25984.00
2024-04-23T09:50:02.287Z,23488.00
2024-04-23T09:51:02.244Z,26528.00
2024-04-23T09:52:04.128Z,27840.00
2024-04-23T09:53:02.380Z,27104.00
2024-04-23T09:54:02.227Z,27072.00
2024-04-23T09:55:02.300Z,26912.00
2024-04-23T09:56:02.300Z,26368.00
2024-04-23T09:57:02.221Z,26976.00
2024-04-23T09:58:02.217Z,28096.00
2024-04-23T09:59:02.276Z,27712.00
2024-04-23T10:00:02.235Z,27456.00
2024-04-23T10:01:02.251Z,28160.00
2024-04-23T10:02:02.329Z,28960.00
2024-04-23T10:03:02.338Z,28640.00
2024-04-23T10:04:02.249Z,28320.00
2024-04-23T10:05:02.468Z,29504.00
2024-04-23T10:06:02.233Z,29664.00
2024-04-23T10:07:02.236Z,30080.00
2024-04-23T10:08:02.243Z,29824.00
2024-04-23T10:09:02.215Z,28992.00
2024-04-23T10:10:02.288Z,28000.00
2024-04-23T10:11:02.285Z,28032.00
2024-04-23T10:12:02.335Z,29376.00
2024-04-23T10:13:02.254Z,30048.00
2024-04-23T10:14:02.248Z,29632.00
2024-04-23T10:15:02.373Z,29600.00
2024-04-23T10:16:02.219Z,28352.00
2024-04-23T10:17:02.271Z,27488.00
2024-04-23T10:18:02.348Z,28512.00
2024-04-23T10:19:02.244Z,29280.00
2024-04-23T10:20:02.332Z,29312.00
2024-04-23T10:21:02.244Z,28896.00
2024-04-23T10:22:02.246Z,28544.00
2024-04-23T10:23:02.259Z,28768.00
2024-04-23T10:24:02.272Z,28544.00
2024-04-23T10:25:02.240Z,28544.00
2024-04-23T10:26:02.276Z,28576.00
2024-04-23T10:27:02.222Z,28640.00
2024-04-23T10:28:02.225Z,28736.00
2024-04-23T10:29:02.290Z,29056.00
2024-04-23T10:30:02.248Z,28640.00
2024-04-23T10:31:02.224Z,28512.00
2024-04-23T10:32:02.304Z,28064.00
2024-04-23T10:33:02.323Z,27936.00
2024-04-23T10:34:02.231Z,28160.00
2024-04-23T10:35:02.424Z,28448.00
2024-04-23T10:36:02.249Z,28032.00
2024-04-23T10:37:02.232Z,27264.00
2024-04-23T10:38:02.294Z,26912.00
2024-04-23T10:39:02.239Z,26720.00
2024-04-23T10:40:02.331Z,27232.00
2024-04-23T10:41:02.368Z,27296.00
2024-04-23T10:42:02.246Z,26752.00
2024-04-23T10:43:02.269Z,26176.00
2024-04-23T10:44:02.250Z,26176.00
2024-04-23T10:45:02.240Z,25984.00
2024-04-23T10:46:02.265Z,25632.00
2024-04-23T10:47:02.269Z,26080.00
2024-04-23T10:48:02.287Z,26912.00
2024-04-23T10:49:02.294Z,27200.00
2024-04-23T10:50:02.320Z,27104.00
2024-04-23T10:51:02.305Z,26720.00
2024-04-23T10:52:02.276Z,26464.00
2024-04-23T10:53:02.294Z,26560.00
2024-04-23T10:55:46.543Z,26272.00
2024-04-23T10:56:46.515Z,25696.00
2024-04-23T10:58:53.639Z,25408.00
2024-04-23T10:59:53.627Z,24672.00
2024-04-23T11:01:59.083Z,24992.00
2024-04-23T11:02:59.184Z,24928.00
2024-04-23T11:05:06.195Z,24480.00
2024-04-23T11:06:08.657Z,23808.00
2024-04-23T11:08:13.102Z,23168.00
2024-04-23T11:09:13.040Z,22528.00
2024-04-23T11:10:13.044Z,22560.00
2024-04-23T11:11:13.126Z,22336.00
2024-04-23T11:12:13.047Z,22272.00
2024-04-23T11:13:13.069Z,22496.00
2024-04-23T11:14:13.131Z,22656.00
2024-04-23T11:15:13.053Z,22304.00
2024-04-23T11:16:13.151Z,23168.00
2024-04-23T11:17:13.110Z,25856.00
2024-04-23T11:18:15.128Z,26304.00
2024-04-23T11:19:13.160Z,25184.00
2024-04-23T11:20:13.099Z,24640.00
2024-04-23T11:21:13.070Z,25280.00
2024-04-23T11:22:13.066Z,26208.00
2024-04-23T11:23:13.083Z,25856.00
2024-04-23T11:24:13.112Z,24928.00
2024-04-23T11:25:13.072Z,24928.00
2024-04-23T11:26:13.103Z,25248.00
2024-04-23T11:27:13.077Z,24672.00
2024-04-23T11:28:13.114Z,23744.00
2024-04-23T11:29:13.123Z,24640.00
2024-04-23T11:30:13.199Z,24544.00
2024-04-23T11:31:13.098Z,22848.00
2024-04-23T11:32:13.172Z,22944.00
2024-04-23T11:33:13.126Z,23072.00
2024-04-23T11:34:13.090Z,22528.00
2024-04-23T11:35:13.137Z,20864.00
2024-04-23T11:36:13.645Z,17728.00
2024-04-23T11:37:13.103Z,16224.00
2024-04-23T11:38:13.150Z,16192.00
2024-04-23T11:39:13.112Z,7532.00
2024-04-23T11:40:13.109Z,3868.00
2024-04-23T11:41:13.153Z,16224.00
2024-04-23T11:42:13.305Z,15648.00
2024-04-23T11:43:13.119Z,15380.00
2024-04-23T11:44:13.429Z,15216.00
2024-04-23T11:45:13.135Z,15108.00
2024-04-23T11:46:13.151Z,14920.00
2024-04-23T11:47:13.243Z,14636.00
2024-04-23T11:48:13.288Z,14496.00
2024-04-23T11:49:13.158Z,14368.00
2024-04-23T11:50:13.161Z,14316.00
2024-04-23T11:51:13.215Z,14248.00
2024-04-23T11:52:13.135Z,14112.00
2024-04-23T11:53:13.171Z,14104.00
2024-04-23T11:54:13.138Z,14076.00
2024-04-23T11:55:13.131Z,14004.00
2024-04-23T11:56:13.173Z,13936.00
2024-04-23T11:57:13.129Z,13952.00
2024-04-23T11:58:13.135Z,13832.00
2024-04-23T11:59:13.160Z,13740.00
2024-04-23T12:00:13.135Z,13684.00
2024-04-23T12:01:13.168Z,13648.00
2024-04-23T12:02:13.173Z,13548.00
2024-04-23T12:03:13.137Z,11276.00
2024-04-23T12:04:13.154Z,13544.00
2024-04-23T12:05:13.192Z,13584.00
2024-04-23T12:06:13.473Z,13488.00
2024-04-23T12:07:13.146Z,13440.00
2024-04-23T12:08:13.207Z,12916.00
2024-04-23T12:09:13.139Z,12776.00
2024-04-23T12:10:13.159Z,12860.00
2024-04-23T12:11:13.206Z,12840.00
2024-04-23T12:12:13.138Z,12852.00
2024-04-23T12:13:13.136Z,12796.00
2024-04-23T12:14:13.174Z,12692.00
2024-04-23T12:15:13.139Z,12580.00
2024-04-23T12:16:13.138Z,12496.00
2024-04-23T12:17:13.198Z,12372.00
2024-04-23T12:18:13.314Z,12248.00
2024-04-23T12:19:13.136Z,12184.00
2024-04-23T12:20:13.251Z,12104.00
2024-04-23T12:21:13.162Z,12088.00
2024-04-23T12:22:13.146Z,11840.00
2024-04-23T12:23:13.303Z,10996.00
2024-04-23T12:24:13.135Z,11492.00
2024-04-23T12:25:13.133Z,11464.00
2024-04-23T12:26:13.176Z,11332.00
2024-04-23T12:27:15.964Z,11272.00
2024-04-23T12:28:13.138Z,11264.00